Time;durP1;ratioP1;P1;durP2;ratioP2;P2;SDS_P1;SDS_P2;PMS_P1;PMS_P2;Temp;Humidity;BMP_temperature;BMP_pressure;BME280_temperature;BME280_humidity;BME280_pressure;Samples;Min_cycle;Max_cycle;Signal;HPM_P1;HPM_P2
2023/04/24 04:05:14;;;;;;;0.40;0.40;;;11.40;99.90;;;;;;5465632;23;20565;-67
2023/04/24 04:07:39;;;;;;;1.20;1.10;;;11.30;99.90;;;;;;4954935;29;20174;-71
2023/04/24 04:10:06;;;;;;;0.40;0.40;;;11.30;99.90;;;;;;4954998;29;20614;-71
2023/04/24 04:12:32;;;;;;;1.00;1.00;;;11.20;99.90;;;;;;4954771;29;20255;-69
2023/04/24 04:14:58;;;;;;;1.00;0.43;;;11.20;99.90;;;;;;4954911;28;20660;-69
2023/04/24 04:17:23;;;;;;;0.40;0.40;;;11.20;99.90;;;;;;4941509;29;20526;-68
2023/04/24 04:19:49;;;;;;;0.30;0.30;;;11.20;99.90;;;;;;4958620;29;20181;-69
2023/04/24 04:22:15;;;;;;;0.50;0.50;;;11.20;99.90;;;;;;4958673;29;20174;-69
2023/04/24 04:24:40;;;;;;;0.50;0.50;;;11.20;99.90;;;;;;4958125;28;20269;-71
2023/04/24 04:27:07;;;;;;;0.90;0.40;;;11.20;99.90;;;;;;4958393;29;20181;-70
2023/04/24 04:29:34;;;;;;;0.40;0.40;;;11.30;99.90;;;;;;4958410;29;20527;-66
2023/04/24 04:32:00;;;;;;;1.00;0.90;;;11.30;99.90;;;;;;4941137;29;20624;-68
2023/04/24 04:34:25;;;;;;;0.50;0.50;;;11.40;99.90;;;;;;4957143;28;20483;-69
2023/04/24 04:36:51;;;;;;;0.40;0.40;;;11.40;99.90;;;;;;4958660;29;20197;-70
2023/04/24 04:39:18;;;;;;;0.50;0.50;;;11.50;99.90;;;;;;4958399;29;20199;-69
2023/04/24 04:41:44;;;;;;;0.60;0.60;;;11.50;99.90;;;;;;4958608;29;20816;-72
2023/04/24 04:44:09;;;;;;;0.70;0.70;;;11.50;99.90;;;;;;4957719;28;20200;-66
2023/04/24 04:46:36;;;;;;;0.60;0.60;;;11.50;99.90;;;;;;4957659;29;20270;-68
2023/04/24 04:49:02;;;;;;;0.43;0.43;;;11.50;99.90;;;;;;4956056;29;20201;-66
2023/04/24 04:51:28;;;;;;;0.70;0.70;;;11.50;99.90;;;;;;4955887;29;20831;-72
2023/04/24 04:53:54;;;;;;;1.70;1.03;;;11.40;99.90;;;;;;4955660;28;20410;-68
2023/04/24 04:56:20;;;;;;;1.03;0.57;;;11.40;99.90;;;;;;4956043;29;20803;-72
2023/04/24 04:58:46;;;;;;;0.50;0.50;;;11.40;99.90;;;;;;4956065;29;20244;-68
2023/04/24 05:01:12;;;;;;;0.67;0.67;;;11.40;99.90;;;;;;4956690;29;20468;-68
2023/04/24 05:03:37;;;;;;;0.93;0.93;;;11.40;99.90;;;;;;4957310;29;20194;-69
2023/04/24 05:06:03;;;;;;;0.70;0.70;;;11.40;99.90;;;;;;4957302;28;20446;-67
2023/04/24 05:08:29;;;;;;;1.33;0.60;;;11.30;99.90;;;;;;4940189;29;20617;-69
2023/04/24 05:10:55;;;;;;;0.73;0.73;;;11.30;99.90;;;;;;4957521;29;20260;-68
2023/04/24 05:13:21;;;;;;;0.80;0.80;;;11.30;99.90;;;;;;4957235;29;20174;-71
2023/04/24 05:15:46;;;;;;;0.70;0.63;;;11.20;99.90;;;;;;4961604;28;20510;-70
2023/04/24 05:18:12;;;;;;;0.70;0.70;;;11.20;99.90;;;;;;4957567;29;20533;-69
2023/04/24 05:20:38;;;;;;;1.70;1.00;;;11.20;99.90;;;;;;4957589;29;20170;-68
2023/04/24 05:23:03;;;;;;;0.50;0.50;;;11.20;99.90;;;;;;4957458;29;20180;-70
2023/04/24 05:25:31;;;;;;;1.60;1.10;;;11.20;99.90;;;;;;4957240;28;20193;-71
2023/04/24 05:27:57;;;;;;;1.08;1.08;;;11.10;99.90;;;;;;4956051;28;20180;-66
2023/04/24 05:30:23;;;;;;;0.50;0.50;;;11.10;99.90;;;;;;4956795;29;20257;-71
2023/04/24 05:32:51;;;;;;;0.50;0.50;;;11.20;99.90;;;;;;4957184;29;20182;-70
2023/04/24 05:35:18;;;;;;;0.93;0.93;;;11.20;99.90;;;;;;4959547;28;20264;-68
2023/04/24 05:37:44;;;;;;;0.50;0.50;;;11.20;99.90;;;;;;4976766;28;20178;-68
2023/04/24 05:40:10;;;;;;;0.67;0.67;;;11.20;99.90;;;;;;4976938;28;20621;-67
2023/04/24 05:42:36;;;;;;;1.17;0.70;;;11.20;99.90;;;;;;4969088;28;20175;-69
2023/04/24 05:45:02;;;;;;;1.17;1.07;;;11.30;99.90;;;;;;4941487;28;20783;-70
2023/04/24 05:47:28;;;;;;;0.70;0.70;;;11.30;99.90;;;;;;4958229;28;20181;-69
2023/04/24 05:49:54;;;;;;;0.60;0.60;;;11.30;99.90;;;;;;4976283;28;20424;-72
2023/04/24 05:52:20;;;;;;;1.07;1.00;;;11.30;99.90;;;;;;4974083;28;20163;-70
2023/04/24 05:54:45;;;;;;;0.70;0.70;;;11.40;99.90;;;;;;4956523;29;20194;-71
2023/04/24 05:57:11;;;;;;;0.73;0.73;;;11.40;99.90;;;;;;4957001;29;20410;-70
2023/04/24 05:59:38;;;;;;;0.70;0.70;;;11.40;99.90;;;;;;4956602;29;20297;-70
2023/04/24 06:02:04;;;;;;;0.90;0.90;;;11.50;99.90;;;;;;4939781;29;20540;-70
2023/04/24 06:04:29;;;;;;;1.33;1.00;;;11.60;99.90;;;;;;4956171;28;20405;-73
2023/04/24 06:06:55;;;;;;;0.60;0.60;;;11.70;99.90;;;;;;4956490;29;20209;-69
2023/04/24 06:09:25;;;;;;;0.60;0.60;;;11.80;99.90;;;;;;4956839;29;20523;-70
2023/04/24 06:11:53;;;;;;;0.90;0.90;;;11.80;99.90;;;;;;4956302;29;20442;-71
2023/04/24 06:14:20;;;;;;;0.90;0.90;;;11.90;99.90;;;;;;4955833;28;20955;-70
2023/04/24 06:16:45;;;;;;;0.50;0.50;;;11.90;99.90;;;;;;4956454;29;20819;-72
2023/04/24 06:19:11;;;;;;;0.80;0.80;;;11.90;99.90;;;;;;4951391;29;20501;-71
2023/04/24 06:21:36;;;;;;;0.40;0.40;;;11.90;99.90;;;;;;4951045;29;20981;-68
2023/04/24 06:24:04;;;;;;;0.70;0.60;;;11.80;99.90;;;;;;4955295;28;20507;-69
2023/04/24 06:26:30;;;;;;;0.93;0.93;;;11.90;99.90;;;;;;4938361;29;20183;-71
2023/04/24 06:28:55;;;;;;;1.13;1.03;;;12.00;99.90;;;;;;4956389;28;20785;-71
2023/04/24 06:31:21;;;;;;;1.00;1.00;;;12.20;99.90;;;;;;4956930;28;20210;-72
2023/04/24 06:33:48;;;;;;;0.70;0.70;;;12.50;99.90;;;;;;4955100;28;20946;-69
2023/04/24 06:36:14;;;;;;;0.83;0.83;;;12.90;99.90;;;;;;4938281;29;20430;-70
2023/04/24 06:38:39;;;;;;;0.80;0.80;;;13.40;99.90;;;;;;4954635;28;20463;-69
2023/04/24 06:41:05;;;;;;;1.23;0.50;;;13.90;99.90;;;;;;4955844;28;20172;-70
2023/04/24 06:43:34;;;;;;;0.77;0.77;;;14.40;99.90;;;;;;4943683;28;20560;-69
2023/04/24 06:46:00;;;;;;;1.20;1.20;;;14.70;99.90;;;;;;4968779;28;20204;-71
2023/04/24 06:48:26;;;;;;;0.70;0.70;;;14.90;99.90;;;;;;4956544;28;20837;-72
2023/04/24 06:50:52;;;;;;;1.27;1.17;;;15.00;99.90;;;;;;4955476;29;20828;-70
2023/04/24 06:53:18;;;;;;;0.67;0.60;;;15.30;99.90;;;;;;4938218;29;20477;-71
2023/04/24 06:55:45;;;;;;;0.80;0.80;;;15.60;99.90;;;;;;4954676;28;20456;-69
2023/04/24 06:58:11;;;;;;;5.90;0.97;;;15.90;99.90;;;;;;4958442;28;20858;-72
2023/04/24 07:00:37;;;;;;;0.97;0.83;;;16.30;99.90;;;;;;4958170;28;20910;-73
2023/04/24 07:03:05;;;;;;;1.07;0.63;;;16.70;99.90;;;;;;4962711;28;20503;-73
2023/04/24 07:05:31;;;;;;;1.23;1.13;;;16.70;99.30;;;;;;4957907;28;20466;-68
2023/04/24 07:07:58;;;;;;;1.00;0.90;;;16.60;99.10;;;;;;4955496;29;20449;-70
2023/04/24 07:10:24;;;;;;;0.97;0.87;;;16.60;99.40;;;;;;4946452;28;20439;-69
2023/04/24 07:12:50;;;;;;;1.47;1.20;;;16.30;98.90;;;;;;4962790;28;20462;-71
2023/04/24 07:15:16;;;;;;;1.40;1.30;;;16.30;99.70;;;;;;4946306;28;20498;-69
2023/04/24 07:17:44;;;;;;;0.93;0.93;;;16.40;99.90;;;;;;4956754;28;20580;-70
2023/04/24 07:20:12;;;;;;;2.63;1.87;;;16.80;98.80;;;;;;4954885;29;20435;-74
2023/04/24 07:22:38;;;;;;;1.20;1.20;;;17.00;97.70;;;;;;4968713;28;20483;-71
2023/04/24 07:25:04;;;;;;;1.07;1.07;;;17.00;97.50;;;;;;4956272;28;20429;-72
2023/04/24 07:27:30;;;;;;;1.00;1.00;;;16.90;97.90;;;;;;4955958;29;20500;-71
2023/04/24 07:29:56;;;;;;;0.80;0.70;;;16.60;97.60;;;;;;4937368;28;20511;-71
2023/04/24 07:32:21;;;;;;;0.93;0.93;;;16.20;97.80;;;;;;4938340;29;20181;-70
2023/04/24 07:34:47;;;;;;;1.20;1.20;;;15.80;98.20;;;;;;4956299;28;20613;-75
2023/04/24 07:37:12;;;;;;;1.30;1.07;;;15.40;99.40;;;;;;4956920;28;20184;-69
2023/04/24 07:39:38;;;;;;;0.90;0.90;;;15.00;99.40;;;;;;4955089;29;20211;-72
2023/04/24 07:42:04;;;;;;;1.30;1.20;;;14.70;99.90;;;;;;4937382;29;20186;-72
2023/04/24 07:44:29;;;;;;;1.00;0.80;;;14.40;99.90;;;;;;4954930;28;20283;-68
2023/04/24 07:46:56;;;;;;;1.10;1.00;;;14.20;99.90;;;;;;4966437;28;20271;-70
2023/04/24 07:49:21;;;;;;;4.30;1.10;;;14.20;99.90;;;;;;4963100;28;20191;-70
2023/04/24 07:51:47;;;;;;;0.93;0.93;;;14.30;99.70;;;;;;4968221;28;20427;-69
2023/04/24 07:54:13;;;;;;;1.17;0.70;;;14.40;99.10;;;;;;4951289;28;20209;-72
2023/04/24 07:56:38;;;;;;;1.23;1.13;;;14.80;98.40;;;;;;4963848;28;20198;-74
2023/04/24 07:59:05;;;;;;;0.53;0.53;;;15.00;97.20;;;;;;4957754;29;20568;-71
2023/04/24 08:01:30;;;;;;;0.50;0.50;;;15.10;97.50;;;;;;4964402;28;20303;-72
2023/04/24 08:03:56;;;;;;;0.93;0.90;;;15.00;97.30;;;;;;4973555;28;20505;-69
2023/04/24 08:06:22;;;;;;;1.03;0.63;;;15.10;97.10;;;;;;4959898;28;20673;-74
2023/04/24 08:08:48;;;;;;;0.63;0.63;;;15.10;97.30;;;;;;4958413;29;20190;-71
2023/04/24 08:11:13;;;;;;;0.83;0.80;;;15.50;96.30;;;;;;4957715;28;20435;-73
2023/04/24 08:13:39;;;;;;;0.60;0.60;;;15.90;94.90;;;;;;4958480;29;20212;-73
2023/04/24 08:16:05;;;;;;;2.40;1.10;;;16.00;94.60;;;;;;4958969;28;20642;-72
2023/04/24 08:18:30;;;;;;;0.90;0.90;;;15.90;93.20;;;;;;4957896;29;20212;-70
2023/04/24 08:21:01;;;;;;;0.60;0.60;;;15.80;93.40;;;;;;4957390;29;20191;-71
2023/04/24 08:23:26;;;;;;;0.73;0.73;;;15.70;93.70;;;;;;4942326;28;20185;-69
2023/04/24 08:25:52;;;;;;;1.40;1.27;;;15.40;93.30;;;;;;4971173;28;20550;-73
2023/04/24 08:28:20;;;;;;;1.60;0.93;;;15.50;93.10;;;;;;4957827;29;20259;-73
2023/04/24 08:30:46;;;;;;;0.70;0.70;;;15.80;92.90;;;;;;4967168;28;20615;-68
2023/04/24 08:33:12;;;;;;;0.80;0.80;;;16.30;93.40;;;;;;4957383;29;20421;-72
2023/04/24 08:35:38;;;;;;;0.70;0.70;;;16.80;93.40;;;;;;4958034;28;20956;-70
2023/04/24 08:38:04;;;;;;;0.93;0.90;;;17.20;92.10;;;;;;4958128;29;20468;-70
2023/04/24 08:40:34;;;;;;;1.33;0.77;;;17.60;92.10;;;;;;4968172;28;20432;-68
2023/04/24 08:43:00;;;;;;;0.90;0.90;;;18.20;92.40;;;;;;4959858;28;20587;-68
2023/04/24 08:45:26;;;;;;;1.20;1.10;;;19.00;91.50;;;;;;4963267;28;20440;-68
2023/04/24 08:47:55;;;;;;;0.70;0.70;;;19.20;91.00;;;;;;4957881;29;20424;-74
2023/04/24 08:50:22;;;;;;;0.80;0.80;;;19.80;91.00;;;;;;4958085;28;20177;-71
2023/04/24 08:52:50;;;;;;;0.90;0.90;;;20.40;90.70;;;;;;4957589;29;20393;-74
2023/04/24 08:55:18;;;;;;;0.73;0.73;;;21.00;88.70;;;;;;4967091;28;20420;-69
2023/04/24 08:57:45;;;;;;;1.47;1.37;;;21.10;85.80;;;;;;4958888;28;20542;-71
2023/04/24 09:00:11;;;;;;;1.10;1.00;;;20.80;84.60;;;;;;4959128;28;20391;-74
2023/04/24 09:02:42;;;;;;;0.77;0.77;;;20.00;85.20;;;;;;4948123;28;20427;-71
2023/04/24 09:05:09;;;;;;;0.87;0.87;;;18.90;86.50;;;;;;4958015;29;20456;-70
2023/04/24 09:07:39;;;;;;;1.20;0.70;;;18.10;88.90;;;;;;4957330;29;20387;-72
2023/04/24 09:10:06;;;;;;;0.90;0.90;;;17.30;90.30;;;;;;4957745;28;20421;-71
2023/04/24 09:12:33;;;;;;;0.80;0.80;;;17.10;88.40;;;;;;4957704;28;20403;-71
2023/04/24 09:14:59;;;;;;;0.73;0.73;;;16.80;90.00;;;;;;4964204;28;20447;-73
2023/04/24 09:17:26;;;;;;;0.77;0.73;;;16.50;90.30;;;;;;4972135;28;20421;-70
2023/04/24 09:19:52;;;;;;;0.80;0.80;;;16.40;90.60;;;;;;4957322;28;20514;-71
2023/04/24 09:22:18;;;;;;;0.80;0.80;;;16.20;91.00;;;;;;4956909;28;20903;-71
2023/04/24 09:24:45;;;;;;;0.70;0.70;;;16.10;91.10;;;;;;4971429;28;20204;-71
2023/04/24 09:27:12;;;;;;;4.10;0.83;;;15.80;91.40;;;;;;4957232;29;20260;-70
2023/04/24 09:29:38;;;;;;;0.80;0.80;;;15.40;92.00;;;;;;4957076;29;20759;-69
2023/04/24 09:32:21;;;;;;;0.70;0.67;;;14.90;92.70;;;;;;4956679;29;20531;-72
2023/04/24 09:34:48;;;;;;;0.90;0.90;;;14.50;93.10;;;;;;4956512;28;20570;-70
2023/04/24 09:37:30;;;;;;;0.67;0.67;;;14.10;94.70;;;;;;4938962;29;20429;-71
2023/04/24 09:40:22;;;;;;;0.63;0.60;;;13.80;96.30;;;;;;4939479;29;20866;-73
2023/04/24 09:42:57;;;;;;;0.90;0.90;;;13.70;96.20;;;;;;4939215;29;20778;-72
2023/04/24 09:45:28;;;;;;;1.03;0.93;;;13.40;97.10;;;;;;4939124;29;20515;-68
2023/04/24 09:47:55;;;;;;;0.73;0.73;;;13.30;97.70;;;;;;4939179;29;20416;-68
2023/04/24 09:50:21;;;;;;;0.50;0.50;;;13.20;98.30;;;;;;4957603;28;20427;-69
2023/04/24 09:52:59;;;;;;;0.90;0.90;;;13.30;99.30;;;;;;4956319;29;20923;-70
2023/04/24 09:55:25;;;;;;;1.03;1.03;;;13.60;98.80;;;;;;4957769;28;20440;-69
2023/04/24 09:58:00;;;;;;;0.80;0.80;;;14.20;98.80;;;;;;4955700;29;20413;-68
2023/04/24 10:00:28;;;;;;;2.30;1.00;;;15.20;97.60;;;;;;4955603;29;20424;-68
2023/04/24 10:03:04;;;;;;;0.77;0.77;;;15.80;95.50;;;;;;4960279;28;20447;-68
2023/04/24 10:05:31;;;;;;;1.00;1.00;;;16.10;94.00;;;;;;4964240;28;20835;-70
2023/04/24 10:08:04;;;;;;;0.97;0.97;;;16.20;93.00;;;;;;4956566;29;20793;-67
2023/04/24 10:10:30;;;;;;;0.60;0.60;;;16.00;92.30;;;;;;4957043;29;20412;-66
2023/04/24 10:12:57;;;;;;;0.87;0.83;;;15.90;93.60;;;;;;4957133;28;20445;-70
2023/04/24 10:15:22;;;;;;;0.97;0.97;;;16.00;93.30;;;;;;4957787;28;20783;-74
2023/04/24 10:17:52;;;;;;;0.93;0.93;;;15.90;94.00;;;;;;4956993;28;20416;-73
2023/04/24 10:20:24;;;;;;;1.10;0.73;;;16.00;93.20;;;;;;4939555;29;20177;-72
2023/04/24 10:22:51;;;;;;;0.90;0.90;;;16.20;92.30;;;;;;4956110;29;20417;-72
2023/04/24 10:25:20;;;;;;;0.90;0.90;;;16.30;91.70;;;;;;4956318;28;20778;-75
2023/04/24 10:27:46;;;;;;;0.50;0.50;;;16.50;91.80;;;;;;4955727;29;20417;-71
2023/04/24 10:30:13;;;;;;;0.60;0.60;;;17.10;91.20;;;;;;4955365;29;20875;-69
2023/04/24 10:32:39;;;;;;;0.77;0.77;;;17.80;89.50;;;;;;4938627;29;20426;-70
2023/04/24 10:35:07;;;;;;;0.70;0.70;;;18.40;85.70;;;;;;4954696;29;20432;-69
2023/04/24 10:37:46;;;;;;;0.90;0.70;;;18.60;83.80;;;;;;4955924;29;20646;-71
2023/04/24 10:40:16;;;;;;;0.70;0.63;;;18.40;83.90;;;;;;4938717;29;20886;-67
2023/04/24 10:42:46;;;;;;;0.80;0.80;;;18.10;82.30;;;;;;4959573;28;20409;-70
2023/04/24 10:45:21;;;;;;;1.37;0.90;;;17.70;82.90;;;;;;4958523;28;20443;-69
2023/04/24 10:48:03;;;;;;;0.60;0.60;;;17.20;83.40;;;;;;4954871;28;20420;-70
2023/04/24 10:50:41;;;;;;;0.77;0.77;;;16.70;84.60;;;;;;4955367;29;20393;-70
2023/04/24 10:53:12;;;;;;;0.90;0.90;;;16.20;85.80;;;;;;4954868;29;20407;-71
2023/04/24 10:55:48;;;;;;;0.93;0.90;;;15.80;85.90;;;;;;4962304;28;20463;-69
2023/04/24 10:58:16;;;;;;;0.80;0.80;;;15.20;86.40;;;;;;4949407;29;20460;-70
2023/04/24 11:00:44;;;;;;;0.70;0.70;;;14.70;89.30;;;;;;4958146;28;20427;-69
2023/04/24 11:03:30;;;;;;;1.20;1.20;;;14.50;90.20;;;;;;4971383;28;20937;-68
2023/04/24 11:05:59;;;;;;;0.80;0.80;;;14.50;90.80;;;;;;4951036;29;20537;-68
2023/04/24 11:08:30;;;;;;;0.90;0.90;;;14.50;91.90;;;;;;4954973;29;20823;-69
2023/04/24 11:11:02;;;;;;;0.70;0.70;;;14.50;91.20;;;;;;4954579;29;20460;-71
2023/04/24 11:13:54;;;;;;;0.70;0.70;;;14.50;90.90;;;;;;4955164;28;20438;-69
2023/04/24 11:16:34;;;;;;;1.53;1.00;;;14.50;91.40;;;;;;4960311;28;20527;-69
2023/04/24 11:19:18;;;;;;;1.40;1.30;;;14.60;91.60;;;;;;4939377;29;20454;-68
2023/04/24 11:22:00;;;;;;;0.50;0.50;;;14.70;90.50;;;;;;4955486;29;20374;-67
2023/04/24 11:24:46;;;;;;;0.63;0.63;;;14.70;91.20;;;;;;4954798;28;20480;-68
2023/04/24 11:27:20;;;;;;;1.33;1.20;;;14.90;92.00;;;;;;4954870;29;20412;-69
2023/04/24 11:29:47;;;;;;;1.13;1.03;;;15.00;91.80;;;;;;4957980;28;20434;-69
2023/04/24 11:32:32;;;;;;;1.00;1.00;;;15.00;91.80;;;;;;4955235;29;20383;-69
2023/04/24 11:35:03;;;;;;;0.77;0.77;;;15.20;91.20;;;;;;4954890;29;20563;-68
2023/04/24 11:37:39;;;;;;;0.90;0.90;;;15.20;91.40;;;;;;4957861;28;20425;-70
2023/04/24 11:40:10;;;;;;;0.80;0.80;;;15.30;90.70;;;;;;4974729;28;20419;-69
2023/04/24 11:42:41;;;;;;;1.20;1.20;;;15.40;90.70;;;;;;4974757;28;20381;-71
2023/04/24 11:45:18;;;;;;;1.00;1.00;;;15.60;89.80;;;;;;4960698;28;20999;-69
2023/04/24 11:47:45;;;;;;;0.83;0.77;;;15.70;89.80;;;;;;4960672;28;20473;-70
2023/04/24 11:50:12;;;;;;;0.90;0.90;;;15.70;89.30;;;;;;4955057;29;20414;-69
2023/04/24 11:52:41;;;;;;;0.80;0.80;;;15.70;89.50;;;;;;4955203;29;20384;-68
2023/04/24 11:55:19;;;;;;;2.10;0.90;;;15.70;89.50;;;;;;4954689;29;20421;-70
2023/04/24 11:57:46;;;;;;;0.90;0.90;;;15.60;90.00;;;;;;4954870;29;20407;-70
2023/04/24 12:00:20;;;;;;;1.13;1.10;;;15.50;90.30;;;;;;4936709;29;20434;-69
2023/04/24 12:02:46;;;;;;;0.90;0.90;;;15.20;90.80;;;;;;4955151;29;20813;-69
2023/04/24 12:05:25;;;;;;;1.00;0.93;;;15.00;91.80;;;;;;4936943;29;20460;-70
2023/04/24 12:07:51;;;;;;;0.73;0.70;;;14.60;94.20;;;;;;4954806;29;20589;-69
2023/04/24 12:10:22;;;;;;;1.30;1.20;;;14.30;96.20;;;;;;4954226;29;20408;-69
2023/04/24 12:12:50;;;;;;;0.70;0.70;;;14.10;98.40;;;;;;4954084;29;20428;-70
2023/04/24 12:15:16;;;;;;;0.80;0.80;;;14.00;98.40;;;;;;4970639;28;20461;-71
2023/04/24 12:17:43;;;;;;;0.90;0.90;;;14.10;98.90;;;;;;4962789;28;20410;-69
2023/04/24 12:20:09;;;;;;;0.70;0.70;;;14.40;96.10;;;;;;4954442;29;20438;-72
2023/04/24 12:22:55;;;;;;;0.90;0.90;;;14.60;95.90;;;;;;4954875;29;20531;-73
2023/04/24 12:25:22;;;;;;;1.10;1.10;;;14.80;95.40;;;;;;4954371;29;20467;-72
2023/04/24 12:27:55;;;;;;;0.93;0.77;;;14.90;95.80;;;;;;4958110;28;20521;-71
2023/04/24 12:30:21;;;;;;;1.53;1.07;;;14.90;94.30;;;;;;4974275;28;20422;-69
2023/04/24 12:32:49;;;;;;;0.80;0.80;;;14.90;94.50;;;;;;4973846;28;20474;-70
2023/04/24 12:35:23;;;;;;;0.90;0.90;;;14.80;94.80;;;;;;4969381;28;20561;-70
2023/04/24 12:37:49;;;;;;;0.53;0.53;;;14.70;94.00;;;;;;4956896;28;20464;-67
2023/04/24 12:40:16;;;;;;;2.40;1.60;;;14.60;93.10;;;;;;4940906;29;20503;-69
2023/04/24 12:42:47;;;;;;;1.00;0.70;;;14.30;93.20;;;;;;4956776;29;20420;-69
2023/04/24 12:45:14;;;;;;;1.00;0.90;;;14.20;93.00;;;;;;4940132;28;20424;-69
2023/04/24 12:47:41;;;;;;;1.07;0.70;;;14.20;94.10;;;;;;4957824;29;20413;-69
2023/04/24 12:50:08;;;;;;;0.63;0.63;;;14.30;94.90;;;;;;4964405;28;20417;-69
2023/04/24 12:52:34;;;;;;;0.70;0.70;;;14.20;94.70;;;;;;4977496;28;20498;-67
2023/04/24 12:55:01;;;;;;;1.23;0.73;;;14.20;94.40;;;;;;4959602;28;20523;-68
2023/04/24 12:57:29;;;;;;;1.90;0.90;;;14.10;94.50;;;;;;4958293;28;20575;-68
2023/04/24 12:59:56;;;;;;;1.50;1.00;;;14.10;94.70;;;;;;4957390;29;20448;-69
2023/04/24 13:02:23;;;;;;;0.70;0.70;;;14.00;95.40;;;;;;4958239;29;20408;-68
2023/04/24 13:04:49;;;;;;;0.60;0.60;;;14.10;95.30;;;;;;4957316;29;20776;-68
2023/04/24 13:07:15;;;;;;;0.73;0.73;;;14.20;94.80;;;;;;4958032;29;20408;-67
2023/04/24 13:09:42;;;;;;;0.90;0.60;;;14.40;95.00;;;;;;4957929;29;20971;-69
2023/04/24 13:12:08;;;;;;;1.00;1.00;;;14.40;94.60;;;;;;4957052;29;20212;-69
2023/04/24 13:14:35;;;;;;;0.67;0.60;;;14.30;94.10;;;;;;4957277;29;20432;-69
2023/04/24 13:17:00;;;;;;;1.17;1.07;;;14.10;96.40;;;;;;4957869;29;20510;-67
2023/04/24 13:19:27;;;;;;;0.80;0.80;;;13.90;98.40;;;;;;4957764;29;20546;-68
2023/04/24 13:21:55;;;;;;;1.83;1.20;;;13.70;99.90;;;;;;4940452;29;20227;-68
2023/04/24 13:24:24;;;;;;;0.90;0.90;;;13.50;99.90;;;;;;4956656;29;20448;-68
2023/04/24 13:26:51;;;;;;;0.83;0.83;;;13.40;99.90;;;;;;4957510;29;20886;-68
2023/04/24 13:29:16;;;;;;;0.80;0.80;;;13.40;99.90;;;;;;4957419;29;20412;-70
2023/04/24 13:31:42;;;;;;;0.67;0.67;;;13.40;99.90;;;;;;4940261;29;21014;-69
2023/04/24 13:34:08;;;;;;;1.30;1.20;;;13.50;99.90;;;;;;4957002;29;20440;-69
2023/04/24 13:36:33;;;;;;;0.80;0.80;;;13.50;99.90;;;;;;4957371;29;20224;-68
2023/04/24 13:38:59;;;;;;;0.90;0.90;;;13.50;99.90;;;;;;4956720;29;20602;-69
2023/04/24 13:41:24;;;;;;;1.50;1.40;;;13.60;99.90;;;;;;4956888;29;20272;-69
2023/04/24 13:43:50;;;;;;;1.40;1.30;;;13.70;99.90;;;;;;4956459;28;20183;-67
2023/04/24 13:46:16;;;;;;;1.07;1.07;;;13.90;99.80;;;;;;4957336;29;20173;-69
2023/04/24 13:48:42;;;;;;;1.67;1.53;;;14.10;99.90;;;;;;4956332;28;20222;-68
2023/04/24 13:51:07;;;;;;;1.00;1.00;;;14.30;99.90;;;;;;4956635;29;20429;-69
2023/04/24 13:53:35;;;;;;;1.23;1.13;;;14.30;99.90;;;;;;4956582;29;20197;-68
2023/04/24 13:56:02;;;;;;;1.20;1.20;;;14.40;99.20;;;;;;4956967;29;20201;-69
2023/04/24 13:58:27;;;;;;;2.17;1.50;;;14.40;99.10;;;;;;4956802;29;20821;-69
2023/04/24 14:00:53;;;;;;;1.43;1.33;;;14.40;98.00;;;;;;4956637;29;20514;-68
2023/04/24 14:03:18;;;;;;;0.70;0.70;;;14.20;97.80;;;;;;4956805;29;20161;-69
2023/04/24 14:05:44;;;;;;;0.83;0.83;;;14.10;96.90;;;;;;4956594;28;20240;-69
2023/04/24 14:08:10;;;;;;;0.70;0.70;;;13.90;98.50;;;;;;4956520;29;20181;-69
2023/04/24 14:10:35;;;;;;;0.80;0.80;;;13.80;99.80;;;;;;4956587;29;20634;-68
2023/04/24 14:13:01;;;;;;;0.70;0.70;;;13.60;99.90;;;;;;4956567;29;20200;-69
2023/04/24 14:15:27;;;;;;;0.73;0.73;;;13.50;99.90;;;;;;4956319;29;20196;-68
2023/04/24 14:17:52;;;;;;;0.60;0.60;;;13.60;99.90;;;;;;4956377;28;20180;-68
2023/04/24 14:20:18;;;;;;;0.87;0.87;;;13.60;99.90;;;;;;4956588;29;20204;-69
2023/04/24 14:22:43;;;;;;;0.83;0.80;;;13.60;99.90;;;;;;4956459;29;20220;-69
2023/04/24 14:25:09;;;;;;;0.80;0.80;;;13.70;99.90;;;;;;4955915;29;20639;-69
2023/04/24 14:27:35;;;;;;;0.90;0.70;;;13.70;99.90;;;;;;4957173;28;20266;-67
2023/04/24 14:30:01;;;;;;;0.80;0.80;;;13.70;99.90;;;;;;4975836;28;20570;-68
2023/04/24 14:32:26;;;;;;;1.80;1.07;;;13.80;99.90;;;;;;4958288;28;20187;-70
2023/04/24 14:34:52;;;;;;;1.40;1.10;;;13.90;99.90;;;;;;4975035;28;20433;-68
2023/04/24 14:37:18;;;;;;;0.87;0.87;;;14.00;99.70;;;;;;4975334;28;20172;-69
2023/04/24 14:39:43;;;;;;;1.00;0.90;;;14.10;98.80;;;;;;4975256;28;20203;-68
2023/04/24 14:42:09;;;;;;;1.10;1.10;;;14.30;98.50;;;;;;4940875;29;20632;-70
2023/04/24 14:44:34;;;;;;;1.63;1.53;;;14.30;98.00;;;;;;4955874;29;20538;-70
2023/04/24 14:47:00;;;;;;;0.90;0.77;;;14.40;98.30;;;;;;4956166;29;20169;-68
2023/04/24 14:49:26;;;;;;;0.80;0.80;;;14.50;97.30;;;;;;4938803;29;20176;-70
2023/04/24 14:51:51;;;;;;;0.63;0.60;;;14.60;97.10;;;;;;4955889;29;20687;-68
2023/04/24 14:54:17;;;;;;;0.87;0.87;;;14.60;96.60;;;;;;4955292;29;20206;-69
2023/04/24 14:56:44;;;;;;;1.10;1.00;;;14.60;96.50;;;;;;4971164;28;20713;-70
2023/04/24 14:59:10;;;;;;;0.80;0.80;;;14.50;96.40;;;;;;4975161;28;20200;-69
2023/04/24 15:01:36;;;;;;;0.77;0.77;;;14.40;96.10;;;;;;4975279;28;20494;-68
2023/04/24 15:04:01;;;;;;;0.63;0.63;;;14.30;96.90;;;;;;4974874;28;20968;-69
2023/04/24 15:06:27;;;;;;;0.67;0.67;;;14.30;96.80;;;;;;4974871;28;20490;-69
2023/04/24 15:08:53;;;;;;;1.10;1.10;;;14.30;96.90;;;;;;4975043;28;20259;-69
2023/04/24 15:11:18;;;;;;;1.00;1.00;;;14.30;96.50;;;;;;4974200;28;20434;-69
2023/04/24 15:13:47;;;;;;;1.10;1.10;;;14.40;96.60;;;;;;4974659;28;20187;-69
2023/04/24 15:16:13;;;;;;;1.83;0.93;;;14.50;96.40;;;;;;4975065;28;20186;-68
2023/04/24 15:18:38;;;;;;;1.03;0.83;;;14.50;96.30;;;;;;4974709;28;20451;-69
2023/04/24 15:21:04;;;;;;;0.90;0.90;;;14.60;95.50;;;;;;4974854;28;20223;-70
2023/04/24 15:23:30;;;;;;;2.10;0.90;;;14.50;95.50;;;;;;4956852;28;20263;-69
2023/04/24 15:25:56;;;;;;;0.87;0.87;;;14.30;95.10;;;;;;4961311;28;20200;-69
2023/04/24 15:28:22;;;;;;;0.60;0.60;;;14.00;95.30;;;;;;4955764;29;20180;-68
2023/04/24 15:30:48;;;;;;;0.60;0.60;;;13.80;96.10;;;;;;4955594;29;20405;-68
2023/04/24 15:33:13;;;;;;;0.83;0.80;;;13.70;97.60;;;;;;4954952;28;20179;-68
2023/04/24 15:35:40;;;;;;;0.90;0.90;;;13.60;97.50;;;;;;4955129;29;20432;-67
2023/04/24 15:38:05;;;;;;;1.10;1.00;;;13.70;97.20;;;;;;4955252;29;20187;-69
2023/04/24 15:40:31;;;;;;;0.97;0.97;;;13.70;96.70;;;;;;4955138;29;20508;-68
2023/04/24 15:42:57;;;;;;;0.90;0.90;;;13.60;96.30;;;;;;4963553;28;20637;-69
2023/04/24 15:45:22;;;;;;;1.20;1.10;;;13.60;96.00;;;;;;4974325;28;20195;-69
2023/04/24 15:47:49;;;;;;;1.13;0.83;;;13.50;97.70;;;;;;4974446;28;20186;-68
2023/04/24 15:50:15;;;;;;;0.97;0.93;;;13.30;99.90;;;;;;4974043;28;20266;-67
2023/04/24 15:52:42;;;;;;;1.87;1.00;;;13.20;99.90;;;;;;4974593;28;20421;-68
2023/04/24 15:55:09;;;;;;;1.00;1.00;;;13.00;99.90;;;;;;4956715;28;20494;-69
2023/04/24 15:57:35;;;;;;;1.00;1.00;;;12.90;99.90;;;;;;4974620;28;20410;-70
2023/04/24 16:00:02;;;;;;;0.90;0.90;;;12.90;99.90;;;;;;4974476;28;20451;-67
2023/04/24 16:02:27;;;;;;;0.87;0.87;;;12.90;99.90;;;;;;4964874;28;20212;-69
2023/04/24 16:04:53;;;;;;;2.10;1.90;;;12.90;99.90;;;;;;4937239;29;20554;-67
2023/04/24 16:07:19;;;;;;;2.43;2.23;;;12.90;99.90;;;;;;4954735;29;20255;-67
2023/04/24 16:09:45;;;;;;;1.60;1.33;;;12.90;99.90;;;;;;4955026;29;20424;-69
2023/04/24 16:12:11;;;;;;;2.83;1.40;;;12.90;99.70;;;;;;4956750;28;20188;-67
2023/04/24 16:14:37;;;;;;;2.00;1.43;;;12.80;99.90;;;;;;4958303;29;20945;-68
2023/04/24 16:17:03;;;;;;;0.70;0.70;;;12.70;99.90;;;;;;4958556;29;20453;-69
2023/04/24 16:19:29;;;;;;;1.10;1.10;;;12.70;99.90;;;;;;4972283;28;20461;-66
2023/04/24 16:21:55;;;;;;;0.80;0.80;;;12.70;99.90;;;;;;4978010;28;20414;-67
2023/04/24 16:24:22;;;;;;;1.20;1.00;;;12.60;99.90;;;;;;4977617;28;20190;-69
2023/04/24 16:26:49;;;;;;;0.63;0.50;;;12.60;99.90;;;;;;4967057;28;20397;-68
2023/04/24 16:29:15;;;;;;;1.00;1.00;;;12.50;99.90;;;;;;4958654;29;20465;-68
2023/04/24 16:31:41;;;;;;;0.80;0.80;;;12.50;99.90;;;;;;4948282;28;20956;-67
2023/04/24 16:34:07;;;;;;;1.27;1.17;;;12.50;99.90;;;;;;4977304;28;20440;-68
2023/04/24 16:36:32;;;;;;;0.80;0.80;;;12.40;99.90;;;;;;4977483;28;20409;-68
2023/04/24 16:38:59;;;;;;;1.30;1.20;;;12.40;99.90;;;;;;4960341;28;20259;-69
2023/04/24 16:41:26;;;;;;;0.83;0.80;;;12.40;99.90;;;;;;4977704;28;20171;-69
2023/04/24 16:43:52;;;;;;;1.03;1.03;;;12.40;99.90;;;;;;4977189;28;20425;-67
2023/04/24 16:46:18;;;;;;;0.93;0.93;;;12.40;99.90;;;;;;4971173;28;20428;-73
2023/04/24 16:48:44;;;;;;;1.20;1.10;;;12.40;99.90;;;;;;4958067;29;20448;-68
2023/04/24 16:51:09;;;;;;;1.93;1.70;;;12.40;99.90;;;;;;4941039;29;20414;-70
2023/04/24 16:53:35;;;;;;;0.87;0.87;;;12.30;99.90;;;;;;4958083;29;20184;-69